createdAt,value
2022-12-02T00:00:21.544Z,102529.22
2022-12-02T00:02:48.826Z,102527.63
2022-12-02T00:05:15.795Z,102518.75
2022-12-02T00:07:43.419Z,102519.50
2022-12-02T00:10:31.765Z,102517.66
2022-12-02T00:13:29.752Z,102519.31
2022-12-02T00:16:04.809Z,102513.97
2022-12-02T00:18:34.512Z,102513.94
2022-12-02T00:21:02.697Z,102507.91
2022-12-02T00:23:29.822Z,102508.75
2022-12-02T00:25:56.851Z,102507.91
2022-12-02T00:28:23.863Z,102507.84
2022-12-02T00:30:50.981Z,102502.59
2022-12-02T00:33:21.223Z,102503.41
2022-12-02T00:35:49.442Z,102503.31
2022-12-02T00:38:16.538Z,102503.31
2022-12-02T00:40:44.826Z,102499.75
2022-12-02T00:43:30.823Z,102497.03
2022-12-02T00:46:16.814Z,102503.00
2022-12-02T00:48:43.910Z,102498.63
2022-12-02T00:51:11.026Z,102502.91
2022-12-02T00:53:38.126Z,102502.00
2022-12-02T00:56:05.546Z,102503.69
2022-12-02T00:58:32.581Z,102502.03
2022-12-02T01:01:00.347Z,102497.53
2022-12-02T01:03:29.419Z,102498.31
2022-12-02T01:05:56.521Z,102494.69
2022-12-02T01:08:27.324Z,102495.53
2022-12-02T01:10:55.364Z,102498.97
2022-12-02T01:13:26.091Z,102490.97
2022-12-02T01:15:53.690Z,102490.97
2022-12-02T01:18:21.311Z,102483.97
2022-12-02T01:20:49.244Z,102485.69
2022-12-02T01:23:17.318Z,102485.63
2022-12-02T01:25:44.579Z,102490.84
2022-12-02T01:28:11.679Z,102483.88
2022-12-02T01:30:38.709Z,102479.56
2022-12-02T01:33:05.750Z,102483.13
2022-12-02T01:35:32.834Z,102484.75
2022-12-02T01:38:00.007Z,102482.16
2022-12-02T01:40:29.682Z,102484.72
2022-12-02T01:42:56.894Z,102483.75
2022-12-02T01:45:24.631Z,102490.69
2022-12-02T01:47:52.115Z,102488.13
2022-12-02T01:50:20.325Z,102489.88
2022-12-02T01:52:47.685Z,102487.94
2022-12-02T01:55:22.600Z,102485.34
2022-12-02T01:57:50.207Z,102482.66
2022-12-02T02:00:18.360Z,102479.13
2022-12-02T02:02:46.865Z,102480.88
2022-12-02T02:05:22.870Z,102484.34
2022-12-02T02:07:57.846Z,102490.41
2022-12-02T02:10:28.219Z,102479.00
2022-12-02T02:12:58.878Z,102476.50
2022-12-02T02:15:27.957Z,102478.97
2022-12-02T02:18:01.962Z,102471.19
2022-12-02T02:20:32.237Z,102471.19
2022-12-02T02:23:08.115Z,102473.03
2022-12-02T02:25:45.573Z,102472.16
2022-12-02T02:28:14.938Z,102464.28
2022-12-02T02:30:44.165Z,102469.50
2022-12-02T02:33:15.274Z,102462.47
2022-12-02T02:35:45.436Z,102455.53
2022-12-02T02:38:18.814Z,102455.69
2022-12-02T02:40:47.204Z,102457.41
2022-12-02T02:43:17.326Z,102458.34
2022-12-02T02:45:46.135Z,102457.41
2022-12-02T02:48:17.335Z,102453.00
2022-12-02T02:50:47.926Z,102453.84
2022-12-02T02:53:23.284Z,102456.47
2022-12-02T02:55:52.814Z,102468.56
2022-12-02T02:58:24.339Z,102447.63
2022-12-02T03:01:00.735Z,102443.34
2022-12-02T03:03:35.260Z,102440.59
2022-12-02T03:06:08.465Z,102455.19
2022-12-02T03:08:42.693Z,102443.06
2022-12-02T03:11:12.050Z,102440.34
2022-12-02T03:13:43.323Z,102448.22
2022-12-02T03:16:15.822Z,102436.09
2022-12-02T03:18:46.558Z,102435.13
2022-12-02T03:21:17.067Z,102432.56
2022-12-02T03:23:46.485Z,102427.31
2022-12-02T03:26:15.812Z,102435.03
2022-12-02T03:28:43.315Z,102428.94
2022-12-02T03:31:12.230Z,102425.44
2022-12-02T03:33:41.433Z,102414.94
2022-12-02T03:36:10.223Z,102419.41
2022-12-02T03:38:38.942Z,102415.84
2022-12-02T03:41:07.373Z,102415.91
2022-12-02T03:43:37.748Z,102422.00
2022-12-02T03:46:08.136Z,102410.63
2022-12-02T03:48:38.395Z,102407.25
2022-12-02T03:51:08.004Z,102415.03
2022-12-02T03:53:36.796Z,102408.06
2022-12-02T03:56:07.098Z,102409.91
2022-12-02T03:58:46.111Z,102407.22
2022-12-02T04:01:15.016Z,102401.28
2022-12-02T04:03:42.414Z,102396.88
2022-12-02T04:06:10.384Z,102405.47
2022-12-02T04:08:38.779Z,102403.88
2022-12-02T04:11:07.352Z,102411.78
2022-12-02T04:13:40.454Z,102406.47
2022-12-02T04:16:07.896Z,102398.78
2022-12-02T04:18:35.357Z,102403.13
2022-12-02T04:21:04.625Z,102400.31
2022-12-02T04:23:32.044Z,102402.00
2022-12-02T04:25:59.178Z,102400.31
2022-12-02T04:28:26.425Z,102397.75
2022-12-02T04:30:53.558Z,102389.84
2022-12-02T04:33:20.647Z,102383.75
2022-12-02T04:35:47.683Z,102397.72
2022-12-02T04:38:14.896Z,102382.78
2022-12-02T04:40:41.964Z,102379.38
2022-12-02T04:43:09.075Z,102379.28
2022-12-02T04:45:36.682Z,102377.59
2022-12-02T04:48:04.495Z,102382.81
2022-12-02T04:50:31.510Z,102382.91
2022-12-02T04:52:59.756Z,102377.69
2022-12-02T04:55:26.780Z,102376.03
2022-12-02T04:57:53.845Z,102379.41
2022-12-02T05:00:21.233Z,102367.28
2022-12-02T05:02:48.283Z,102361.19
2022-12-02T05:05:17.509Z,102369.94
2022-12-02T05:07:44.574Z,102365.53
2022-12-02T05:10:11.667Z,102368.03
2022-12-02T05:12:39.712Z,102359.47
2022-12-02T05:15:07.750Z,102361.25
2022-12-02T05:17:39.111Z,102354.25
2022-12-02T05:20:09.663Z,102354.25
2022-12-02T05:22:36.645Z,102360.41
2022-12-02T05:25:06.284Z,102356.88
2022-12-02T05:27:35.617Z,102355.25
2022-12-02T05:30:05.430Z,102345.63
2022-12-02T05:32:32.430Z,102343.72
2022-12-02T05:35:00.409Z,102350.63
2022-12-02T05:37:28.449Z,102349.03
2022-12-02T05:39:55.974Z,102344.53
2022-12-02T05:42:23.241Z,102357.63
2022-12-02T05:44:51.379Z,102358.66
2022-12-02T05:47:19.636Z,102361.28
2022-12-02T05:49:47.012Z,102356.25
2022-12-02T05:52:27.058Z,102348.97
2022-12-02T05:55:01.823Z,102350.28
2022-12-02T05:57:31.430Z,102348.56
2022-12-02T06:00:23.338Z,102343.09
2022-12-02T06:03:00.130Z,102344.59
2022-12-02T06:05:38.483Z,102347.97
2022-12-02T06:08:20.526Z,102343.59
2022-12-02T06:10:57.312Z,102345.63
2022-12-02T06:13:35.413Z,102335.22
2022-12-02T06:16:12.540Z,102337.81
2022-12-02T06:18:40.823Z,102346.50
2022-12-02T06:21:16.664Z,102350.78
2022-12-02T06:23:50.978Z,102345.34
2022-12-02T06:26:20.603Z,102347.00
2022-12-02T06:28:56.370Z,102342.41
2022-12-02T06:31:39.920Z,102346.75
2022-12-02T06:34:43.558Z,102350.13
2022-12-02T06:37:28.726Z,102350.13
2022-12-02T06:40:27.047Z,102345.56
2022-12-02T06:42:46.714Z,102347.44
2022-12-02T06:45:33.017Z,102342.09
2022-12-02T06:48:02.770Z,102344.59
2022-12-02T06:50:42.536Z,102341.09
2022-12-02T06:53:33.830Z,102334.03
2022-12-02T06:56:07.104Z,102338.31
2022-12-02T06:58:43.517Z,102334.72
2022-12-02T07:01:20.810Z,102337.44
2022-12-02T07:04:08.247Z,102329.66
2022-12-02T07:06:52.708Z,102340.09
2022-12-02T07:09:28.011Z,102336.78
2022-12-02T07:11:58.852Z,102341.00
2022-12-02T07:14:44.742Z,102348.09
2022-12-02T07:17:29.666Z,102349.03
2022-12-02T07:20:05.799Z,102344.66
2022-12-02T07:22:46.175Z,102348.75
2022-12-02T07:25:38.727Z,102353.09
2022-12-02T07:28:38.462Z,102356.66
2022-12-02T07:31:27.568Z,102359.16
2022-12-02T07:33:55.222Z,102359.19
2022-12-02T07:36:24.392Z,102357.63
2022-12-02T07:39:05.953Z,102357.38
2022-12-02T07:41:37.149Z,102353.84
2022-12-02T07:44:05.470Z,102359.94
2022-12-02T07:46:32.787Z,102360.69
2022-12-02T07:48:59.877Z,102360.72
2022-12-02T07:51:26.922Z,102366.63
2022-12-02T07:53:54.161Z,102365.75
2022-12-02T07:56:21.151Z,102363.75
2022-12-02T07:59:11.306Z,102357.47
2022-12-02T08:01:35.264Z,102357.41
2022-12-02T08:04:02.583Z,102356.66
2022-12-02T08:06:33.114Z,102349.56
2022-12-02T08:09:04.106Z,102353.78
2022-12-02T08:11:31.194Z,102366.63
2022-12-02T08:13:58.262Z,102365.66
2022-12-02T08:16:25.476Z,102360.47
2022-12-02T08:18:52.493Z,102356.84
2022-12-02T08:21:19.618Z,102365.53
2022-12-02T08:23:46.892Z,102364.66
2022-12-02T08:26:14.034Z,102361.25
2022-12-02T08:28:42.065Z,102363.00
2022-12-02T08:31:09.314Z,102361.25
2022-12-02T08:33:36.583Z,102362.06
2022-12-02T08:36:04.383Z,102363.72
2022-12-02T08:38:31.688Z,102368.06
2022-12-02T08:40:58.868Z,102362.09
2022-12-02T08:43:25.987Z,102361.03
2022-12-02T08:45:53.201Z,102362.78
2022-12-02T08:48:20.804Z,102357.72
2022-12-02T08:50:48.067Z,102359.38
2022-12-02T08:53:15.212Z,102353.94
2022-12-02T08:55:45.314Z,102361.72
2022-12-02T08:58:12.581Z,102358.28
2022-12-02T09:00:40.990Z,102349.66
2022-12-02T09:03:09.925Z,102361.03
2022-12-02T09:05:39.092Z,102358.41
2022-12-02T09:08:06.136Z,102360.97
2022-12-02T09:10:33.592Z,102360.03
2022-12-02T09:13:00.673Z,102359.09
2022-12-02T09:15:27.691Z,102356.59
2022-12-02T09:17:54.810Z,102347.13
2022-12-02T09:20:21.809Z,102349.66
2022-12-02T09:22:49.110Z,102348.84
2022-12-02T09:25:16.395Z,102357.66
2022-12-02T09:27:43.673Z,102354.16
2022-12-02T09:30:11.833Z,102349.19
2022-12-02T09:32:38.903Z,102358.81
2022-12-02T09:35:06.689Z,102358.81
2022-12-02T09:37:33.855Z,102356.19
2022-12-02T09:40:01.291Z,102347.69
2022-12-02T09:42:28.632Z,102350.25
2022-12-02T09:44:56.928Z,102341.63
2022-12-02T09:47:25.463Z,102345.16
2022-12-02T09:49:52.738Z,102338.28
2022-12-02T09:52:26.860Z,102337.41
2022-12-02T09:54:57.356Z,102334.88
2022-12-02T09:57:40.026Z,102340.19
2022-12-02T10:00:22.046Z,102335.13
2022-12-02T10:02:54.490Z,102339.63
2022-12-02T10:05:28.315Z,102332.72
2022-12-02T10:07:59.744Z,102332.06
2022-12-02T10:10:35.862Z,102326.97
2022-12-02T10:13:08.006Z,102322.88
2022-12-02T10:15:35.699Z,102333.34
2022-12-02T10:18:15.233Z,102333.63
2022-12-02T10:20:42.319Z,102330.97
2022-12-02T10:23:18.518Z,102330.97
2022-12-02T10:26:12.880Z,102329.28
2022-12-02T10:28:42.539Z,102331.28
2022-12-02T10:31:15.656Z,102339.84
2022-12-02T10:34:07.261Z,102331.06
2022-12-02T10:36:42.766Z,102323.38
2022-12-02T10:39:35.928Z,102324.25
2022-12-02T10:42:04.638Z,102321.66
2022-12-02T10:44:45.410Z,102322.50
2022-12-02T10:47:26.216Z,102315.75
2022-12-02T10:49:57.393Z,102311.25
2022-12-02T10:52:34.904Z,102315.72
2022-12-02T10:55:04.068Z,102313.16
2022-12-02T10:57:34.755Z,102314.88
2022-12-02T11:00:15.135Z,102307.84
2022-12-02T11:03:05.138Z,102311.19
2022-12-02T11:05:37.639Z,102313.78
2022-12-02T11:08:19.408Z,102307.69
2022-12-02T11:11:09.785Z,102301.50
2022-12-02T11:13:54.094Z,102302.50
2022-12-02T11:16:27.453Z,102294.69
2022-12-02T11:19:13.014Z,102303.44
2022-12-02T11:21:45.069Z,102311.38
2022-12-02T11:24:24.289Z,102302.72
2022-12-02T11:27:00.561Z,102299.03
2022-12-02T11:29:43.127Z,102300.81
2022-12-02T11:32:26.016Z,102303.53
2022-12-02T11:35:16.918Z,102304.47
2022-12-02T11:37:46.481Z,102302.56
2022-12-02T11:40:16.491Z,102302.50
2022-12-02T11:42:46.328Z,102307.78
2022-12-02T11:45:18.115Z,102297.47
2022-12-02T11:48:00.098Z,102293.84
2022-12-02T11:50:32.895Z,102284.25
2022-12-02T11:53:16.151Z,102291.25
2022-12-02T11:55:47.732Z,102284.44
2022-12-02T11:58:33.241Z,102281.16
2022-12-02T12:01:20.621Z,102278.53
2022-12-02T12:03:51.186Z,102278.63
2022-12-02T12:06:22.255Z,102280.34
2022-12-02T12:08:54.747Z,102274.41
2022-12-02T12:11:36.943Z,102271.06
2022-12-02T12:14:19.541Z,102271.31
2022-12-02T12:16:49.722Z,102267.03
2022-12-02T12:19:16.812Z,102271.47
2022-12-02T12:21:48.742Z,102274.22
2022-12-02T12:24:19.832Z,102257.84
2022-12-02T12:26:50.711Z,102257.75
2022-12-02T12:29:20.435Z,102262.09
2022-12-02T12:31:47.702Z,102259.47
2022-12-02T12:34:16.588Z,102267.28
2022-12-02T12:36:46.343Z,102254.25
2022-12-02T12:39:14.942Z,102261.22
2022-12-02T12:44:33.098Z,102266.16
2022-12-02T12:47:05.062Z,102254.03
2022-12-02T12:49:35.441Z,102250.63
2022-12-02T12:52:03.469Z,102248.84
2022-12-02T12:54:30.816Z,102248.69
2022-12-02T12:56:57.863Z,102249.56
2022-12-02T12:59:24.951Z,102255.63
2022-12-02T13:01:52.182Z,102254.72
2022-12-02T13:04:19.410Z,102255.63
2022-12-02T13:06:47.150Z,102249.47
2022-12-02T13:09:16.254Z,102243.31
2022-12-02T13:11:43.489Z,102233.09
2022-12-02T13:14:11.742Z,102239.13
2022-12-02T13:16:38.800Z,102238.13
2022-12-02T13:19:06.193Z,102224.16
2022-12-02T13:21:33.544Z,102236.16
2022-12-02T13:24:00.516Z,102234.59
2022-12-02T13:26:27.725Z,102238.78
2022-12-02T13:29:01.667Z,102243.03
2022-12-02T13:31:28.847Z,102240.41
2022-12-02T13:33:56.770Z,102236.72
2022-12-02T13:36:23.816Z,102233.97
2022-12-02T13:38:51.124Z,102236.50
2022-12-02T13:41:18.226Z,102237.34
2022-12-02T13:43:45.381Z,102238.09
2022-12-02T13:46:12.424Z,102239.03
2022-12-02T13:48:39.528Z,102247.66
2022-12-02T13:51:06.545Z,102239.81
2022-12-02T13:53:34.538Z,102241.34
2022-12-02T13:56:01.606Z,102241.41
2022-12-02T13:58:28.667Z,102250.88
2022-12-02T14:00:55.728Z,102244.88
2022-12-02T14:03:22.811Z,102246.63
2022-12-02T14:05:49.853Z,102254.44
2022-12-02T14:08:17.117Z,102253.41
2022-12-02T14:10:44.113Z,102251.50
2022-12-02T14:13:17.162Z,102250.53
2022-12-02T14:15:46.810Z,102258.19
2022-12-02T14:18:13.991Z,102265.88
2022-12-02T14:20:41.350Z,102256.28
2022-12-02T14:23:08.443Z,102258.03
2022-12-02T14:25:35.802Z,102263.13
2022-12-02T14:28:04.771Z,102263.13
2022-12-02T14:30:31.829Z,102258.75
2022-12-02T14:32:58.846Z,102259.47
2022-12-02T14:35:27.881Z,102255.00
2022-12-02T14:37:54.883Z,102263.84
2022-12-02T14:40:21.907Z,102266.38
2022-12-02T14:42:49.274Z,102264.66
2022-12-02T14:45:17.442Z,102267.28
2022-12-02T14:47:44.539Z,102268.09
2022-12-02T14:50:11.920Z,102275.94
2022-12-02T14:52:42.762Z,102269.00
2022-12-02T14:55:10.097Z,102271.47
2022-12-02T14:57:37.089Z,102270.59
2022-12-02T15:00:05.809Z,102276.66
2022-12-02T15:02:32.979Z,102270.66
2022-12-02T15:05:00.094Z,102271.44
2022-12-02T15:07:27.035Z,102273.22
2022-12-02T15:09:54.055Z,102280.94
2022-12-02T15:12:21.135Z,102278.41
2022-12-02T15:14:48.211Z,102278.22
2022-12-02T15:17:15.339Z,102273.84
2022-12-02T15:19:42.543Z,102281.59
2022-12-02T15:22:09.689Z,102276.34
2022-12-02T15:24:36.774Z,102284.84
2022-12-02T15:27:03.802Z,102289.31
2022-12-02T15:29:31.039Z,102284.09
2022-12-02T15:31:58.097Z,102286.59
2022-12-02T15:34:25.243Z,102294.31
2022-12-02T15:36:52.171Z,102287.34
2022-12-02T15:39:19.433Z,102289.91
2022-12-02T15:41:46.668Z,102295.00
2022-12-02T15:44:13.700Z,102290.59
2022-12-02T15:46:41.233Z,102294.88
2022-12-02T15:49:08.250Z,102301.69
2022-12-02T15:51:35.475Z,102287.75
2022-12-02T15:54:02.522Z,102291.31
2022-12-02T15:56:31.289Z,102303.47
2022-12-02T15:58:58.324Z,102303.47
2022-12-02T16:01:25.483Z,102301.72
2022-12-02T16:03:52.621Z,102292.94
2022-12-02T16:06:19.670Z,102291.09
2022-12-02T16:08:50.846Z,102287.56
2022-12-02T16:11:20.857Z,102298.88
2022-12-02T16:13:49.570Z,102298.91
2022-12-02T16:16:17.710Z,102292.88
2022-12-02T16:18:44.787Z,102292.00
2022-12-02T16:21:11.871Z,102290.41
2022-12-02T16:23:38.949Z,102298.19
2022-12-02T16:26:06.300Z,102303.28
2022-12-02T16:28:33.392Z,102306.84
2022-12-02T16:31:01.482Z,102309.44
2022-12-02T16:33:28.499Z,102305.88
2022-12-02T16:35:55.559Z,102306.78
2022-12-02T16:38:22.635Z,102311.28
2022-12-02T16:40:49.685Z,102310.50
2022-12-02T16:43:16.754Z,102302.69
2022-12-02T16:45:43.839Z,102309.88
2022-12-02T16:48:10.997Z,102317.50
2022-12-02T16:50:38.007Z,102316.53
2022-12-02T16:53:05.746Z,102310.47
2022-12-02T16:55:32.753Z,102319.94
2022-12-02T16:58:00.755Z,102325.19
2022-12-02T17:00:27.740Z,102328.72
2022-12-02T17:02:56.845Z,102327.06
2022-12-02T17:05:23.927Z,102328.69
2022-12-02T17:07:53.197Z,102329.53
2022-12-02T17:10:20.338Z,102324.41
2022-12-02T17:12:47.317Z,102331.28
2022-12-02T17:15:14.498Z,102334.00
2022-12-02T17:17:46.228Z,102335.72
2022-12-02T17:20:15.240Z,102328.78
2022-12-02T17:22:43.851Z,102329.66
2022-12-02T17:25:13.032Z,102325.31
2022-12-02T17:27:41.274Z,102321.94
2022-12-02T17:30:11.078Z,102323.66
2022-12-02T17:32:38.213Z,102319.28
2022-12-02T17:35:05.709Z,102324.47
2022-12-02T17:37:32.960Z,102330.72
2022-12-02T17:40:00.111Z,102333.09
2022-12-02T17:42:27.249Z,102326.13
2022-12-02T17:44:54.657Z,102327.97
2022-12-02T17:47:23.353Z,102330.59
2022-12-02T17:49:50.383Z,102331.28
2022-12-02T17:52:20.122Z,102333.94
2022-12-02T17:54:48.127Z,102330.47
2022-12-02T17:57:15.340Z,102336.53
2022-12-02T17:59:42.473Z,102333.94
2022-12-02T18:02:13.218Z,102335.66
2022-12-02T18:04:48.924Z,102328.59
2022-12-02T18:07:16.297Z,102333.78
2022-12-02T18:09:43.386Z,102340.63
2022-12-02T18:12:10.635Z,102336.38
2022-12-02T18:14:37.869Z,102335.44
2022-12-02T18:17:07.269Z,102343.19
2022-12-02T18:19:34.931Z,102333.63
2022-12-02T18:22:03.937Z,102334.72
2022-12-02T18:24:33.024Z,102332.84
2022-12-02T18:27:00.076Z,102326.75
2022-12-02T18:29:27.075Z,102334.59
2022-12-02T18:31:56.775Z,102336.25
2022-12-02T18:34:24.027Z,102333.69
2022-12-02T18:36:51.136Z,102336.41
2022-12-02T18:39:18.211Z,102336.38
2022-12-02T18:41:45.948Z,102331.03
2022-12-02T18:44:14.023Z,102325.81
2022-12-02T18:46:41.129Z,102334.47
2022-12-02T18:49:08.138Z,102326.75
2022-12-02T18:51:36.183Z,102326.59
2022-12-02T18:54:04.336Z,102321.47
2022-12-02T18:56:32.128Z,102328.28
2022-12-02T18:59:00.146Z,102321.34
2022-12-02T19:01:33.664Z,102321.25
2022-12-02T19:04:01.220Z,102328.22
2022-12-02T19:06:28.280Z,102320.53
2022-12-02T19:08:55.366Z,102325.63
2022-12-02T19:11:22.481Z,102319.66
2022-12-02T19:13:50.241Z,102313.56
2022-12-02T19:16:17.657Z,102316.06
2022-12-02T19:18:44.831Z,102314.44
2022-12-02T19:21:11.923Z,102309.19
2022-12-02T19:23:43.765Z,102312.59
2022-12-02T19:26:11.902Z,102310.69
2022-12-02T19:28:39.915Z,102308.13
2022-12-02T19:31:08.033Z,102307.38
2022-12-02T19:33:37.300Z,102302.88
2022-12-02T19:36:06.708Z,102306.38
2022-12-02T19:38:33.835Z,102301.94
2022-12-02T19:41:11.307Z,102302.78
2022-12-02T19:43:40.674Z,102297.59
2022-12-02T19:46:07.772Z,102299.47
2022-12-02T19:48:34.913Z,102302.03
2022-12-02T19:51:02.118Z,102305.44
2022-12-02T19:53:29.211Z,102307.97
2022-12-02T19:55:56.257Z,102297.59
2022-12-02T19:58:24.175Z,102307.38
2022-12-02T20:00:53.951Z,102307.13
2022-12-02T20:03:21.175Z,102303.56
2022-12-02T20:05:48.419Z,102307.72
2022-12-02T20:08:15.618Z,102316.47
2022-12-02T20:10:42.788Z,102312.09
2022-12-02T20:13:09.917Z,102316.44
2022-12-02T20:15:39.199Z,102314.59
2022-12-02T20:18:06.312Z,102312.75
2022-12-02T20:20:33.395Z,102310.94
2022-12-02T20:23:00.387Z,102313.59
2022-12-02T20:25:27.325Z,102309.06
2022-12-02T20:27:55.029Z,102310.69
2022-12-02T20:30:26.522Z,102314.03
2022-12-02T20:32:53.634Z,102312.19
2022-12-02T20:35:23.246Z,102312.19
2022-12-02T20:37:50.288Z,102312.13
2022-12-02T20:40:17.840Z,102312.06
2022-12-02T20:42:45.946Z,102311.94
2022-12-02T20:45:13.184Z,102311.03
2022-12-02T20:47:40.283Z,102308.44
2022-12-02T20:50:08.955Z,102312.75
2022-12-02T20:52:36.055Z,102310.84
2022-12-02T20:55:05.932Z,102305.53
2022-12-02T20:57:33.107Z,102308.09
2022-12-02T21:00:00.170Z,102318.53
2022-12-02T21:02:27.692Z,102315.94
2022-12-02T21:04:55.099Z,102313.22
2022-12-02T21:07:22.334Z,102308.19
2022-12-02T21:09:49.405Z,102309.81
2022-12-02T21:12:16.423Z,102313.34
2022-12-02T21:14:43.693Z,102310.75
2022-12-02T21:17:11.828Z,102308.94
2022-12-02T21:19:38.931Z,102305.38
2022-12-02T21:22:05.955Z,102306.47
2022-12-02T21:24:32.954Z,102304.59
2022-12-02T21:27:00.031Z,102300.25
2022-12-02T21:29:27.096Z,102309.13
2022-12-02T21:31:54.196Z,102302.13
2022-12-02T21:34:21.256Z,102299.56
2022-12-02T21:36:48.282Z,102302.97
2022-12-02T21:39:16.707Z,102292.59
2022-12-02T21:41:43.795Z,102294.34
2022-12-02T21:44:36.615Z,102290.13
2022-12-02T21:47:03.744Z,102301.28
2022-12-02T21:49:30.794Z,102287.34
2022-12-02T21:51:57.781Z,102288.47
2022-12-02T21:54:28.130Z,102286.63
2022-12-02T21:56:55.253Z,102294.41
2022-12-02T21:59:22.256Z,102296.19
2022-12-02T22:01:49.335Z,102289.97
2022-12-02T22:04:19.098Z,102297.03
2022-12-02T22:06:46.265Z,102297.19
2022-12-02T22:09:13.369Z,102293.72
2022-12-02T22:11:40.936Z,102294.59
2022-12-02T22:14:07.950Z,102295.53
2022-12-02T22:16:36.064Z,102297.22
2022-12-02T22:19:03.241Z,102296.38
2022-12-02T22:21:30.258Z,102298.97
2022-12-02T22:23:58.218Z,102302.44
2022-12-02T22:26:25.222Z,102303.28
2022-12-02T22:28:52.222Z,102309.41
2022-12-02T22:31:20.287Z,102302.66
2022-12-02T22:33:47.227Z,102307.00
2022-12-02T22:36:16.237Z,102310.47
2022-12-02T22:38:43.299Z,102301.75
2022-12-02T22:41:10.343Z,102317.47
2022-12-02T22:43:37.268Z,102301.84
2022-12-02T22:46:04.489Z,102307.06
2022-12-02T22:48:31.572Z,102304.56
2022-12-02T22:50:58.712Z,102309.69
2022-12-02T22:53:25.747Z,102304.47
2022-12-02T22:55:52.785Z,102308.00
2022-12-02T22:58:21.914Z,102299.38
2022-12-02T23:00:48.957Z,102306.16
2022-12-02T23:03:16.060Z,102306.16
2022-12-02T23:05:43.061Z,102302.66
2022-12-02T23:08:10.335Z,102304.56
2022-12-02T23:10:37.589Z,102308.00
2022-12-02T23:13:04.940Z,102301.03
2022-12-02T23:15:37.778Z,102289.81
2022-12-02T23:18:07.270Z,102289.00
2022-12-02T23:20:36.263Z,102294.03
2022-12-02T23:23:03.988Z,102292.41
2022-12-02T23:25:31.331Z,102282.91
2022-12-02T23:27:58.444Z,102284.81
2022-12-02T23:30:29.323Z,102290.97
2022-12-02T23:32:59.936Z,102286.38
2022-12-02T23:35:28.438Z,102283.78
2022-12-02T23:37:55.624Z,102277.00
2022-12-02T23:40:22.719Z,102275.97
2022-12-02T23:42:50.789Z,102277.78
2022-12-02T23:45:18.883Z,102270.91
2022-12-02T23:47:46.153Z,102271.63
2022-12-02T23:50:13.215Z,102269.22
2022-12-02T23:52:40.193Z,102262.28
2022-12-02T23:55:08.210Z,102265.81
2022-12-02T23:57:35.234Z,102264.91
